Time;durP1;ratioP1;P1;durP2;ratioP2;P2;SDS_P1;SDS_P2;PMS_P1;PMS_P2;Temp;Humidity;BMP_temperature;BMP_pressure;BME280_temperature;BME280_humidity;BME280_pressure;Samples;Min_cycle;Max_cycle;Signal;HPM_P1;HPM_P2
2023/03/28 00:01:06;;;;;;;2.15;1.60;;;2.30;73.80;;;;;;5987160;23;20022;-77
2023/03/28 00:03:35;;;;;;;5.28;1.42;;;2.20;73.80;;;;;;5962996;23;20748;-78
2023/03/28 00:06:00;;;;;;;3.35;1.70;;;2.20;73.90;;;;;;5963333;23;20041;-77
2023/03/28 00:08:29;;;;;;;4.95;1.67;;;2.20;74.00;;;;;;5938608;23;20022;-77
2023/03/28 00:11:03;;;;;;;4.47;1.60;;;2.20;74.10;;;;;;5964353;23;20138;-78
2023/03/28 00:13:28;;;;;;;3.03;1.52;;;2.20;74.40;;;;;;5961706;23;20018;-78
2023/03/28 00:15:54;;;;;;;3.03;1.60;;;2.10;74.20;;;;;;5962102;23;20037;-77
2023/03/28 00:18:20;;;;;;;2.97;1.50;;;2.20;74.30;;;;;;5982741;23;20034;-77
2023/03/28 00:20:45;;;;;;;5.70;1.92;;;2.10;74.40;;;;;;5985031;23;20029;-77
2023/03/28 00:23:11;;;;;;;4.28;1.80;;;2.10;74.40;;;;;;5983576;23;20093;-78
2023/03/28 00:25:39;;;;;;;3.85;1.50;;;2.10;74.50;;;;;;5963231;23;20030;-77
2023/03/28 00:28:04;;;;;;;5.60;1.42;;;2.10;74.60;;;;;;5985086;23;20022;-78
2023/03/28 00:30:30;;;;;;;4.55;1.90;;;2.10;74.70;;;;;;5963520;23;20026;-77
2023/03/28 00:32:56;;;;;;;2.20;1.50;;;2.00;74.60;;;;;;5961534;23;20057;-77
2023/03/28 00:35:21;;;;;;;6.32;1.50;;;2.10;74.80;;;;;;5965092;23;20092;-77
2023/03/28 00:37:49;;;;;;;1.52;1.40;;;2.00;74.80;;;;;;5984521;23;20041;-77
2023/03/28 00:40:15;;;;;;;6.40;1.55;;;2.00;74.80;;;;;;5963684;23;20049;-78
2023/03/28 00:42:41;;;;;;;4.63;1.65;;;2.00;74.90;;;;;;5961724;23;20620;-77
2023/03/28 00:45:10;;;;;;;2.72;1.30;;;2.00;75.00;;;;;;5981998;23;20022;-77
2023/03/28 00:47:40;;;;;;;2.53;1.60;;;2.00;75.00;;;;;;5982301;23;20386;-77
2023/03/28 00:50:26;;;;;;;2.58;1.33;;;1.90;75.00;;;;;;5983181;23;20087;-77
2023/03/28 00:52:56;;;;;;;4.65;1.67;;;1.90;75.00;;;;;;5960484;23;20437;-77
2023/03/28 00:55:29;;;;;;;4.05;1.60;;;1.90;75.00;;;;;;5961856;23;20104;-78
2023/03/28 00:57:55;;;;;;;5.07;1.98;;;1.90;75.20;;;;;;5961228;23;20440;-77
2023/03/28 01:00:22;;;;;;;3.08;1.90;;;1.90;75.20;;;;;;5984415;23;20422;-77
2023/03/28 01:02:51;;;;;;;2.75;1.50;;;1.90;75.30;;;;;;5959728;23;20029;-77
2023/03/28 01:05:23;;;;;;;7.47;1.70;;;1.90;75.30;;;;;;5983957;23;20025;-77
2023/03/28 01:07:50;;;;;;;6.28;1.65;;;1.90;75.40;;;;;;5935731;23;20049;-76
2023/03/28 01:10:16;;;;;;;5.68;1.60;;;1.80;75.40;;;;;;5960018;23;20104;-77
2023/03/28 01:12:41;;;;;;;5.05;1.88;;;1.90;75.50;;;;;;5983287;23;20110;-77
2023/03/28 01:15:07;;;;;;;3.03;1.42;;;1.80;75.50;;;;;;5983054;23;20488;-78
2023/03/28 01:17:33;;;;;;;3.25;1.50;;;1.80;75.60;;;;;;5984498;23;20086;-76
2023/03/28 01:20:34;;;;;;;5.10;1.60;;;1.80;75.60;;;;;;5913876;23;20109;-77
2023/03/28 01:23:19;;;;;;;2.72;1.77;;;1.80;75.70;;;;;;5960158;23;20121;-77
2023/03/28 01:26:21;;;;;;;4.43;1.80;;;1.80;75.90;;;;;;5959433;23;20029;-77
2023/03/28 01:29:02;;;;;;;;;;;1.80;75.90;;;;;;5961376;23;20416;-77
2023/03/28 01:31:58;;;;;;;3.42;1.50;;;1.80;75.60;;;;;;5963120;23;19909;-76
2023/03/28 01:34:37;;;;;;;2.80;1.63;;;1.70;75.70;;;;;;5935918;23;20049;-76
2023/03/28 01:37:33;;;;;;;8.70;2.33;;;1.70;75.50;;;;;;5981476;23;20101;-76
2023/03/28 01:40:22;;;;;;;2.72;1.70;;;1.70;75.80;;;;;;5983634;23;20038;-77
2023/03/28 01:42:51;;;;;;;4.75;1.75;;;1.70;75.90;;;;;;5984407;23;20022;-77
2023/03/28 01:45:33;;;;;;;3.67;1.90;;;1.70;75.80;;;;;;5985497;23;20026;-77
2023/03/28 01:48:16;;;;;;;4.03;1.77;;;1.60;75.80;;;;;;5980640;23;20037;-76
2023/03/28 01:50:56;;;;;;;3.35;1.60;;;1.60;76.10;;;;;;5958516;23;20029;-77
2023/03/28 01:53:43;;;;;;;4.75;2.20;;;1.60;76.00;;;;;;5961758;23;20022;-77
2023/03/28 01:56:23;;;;;;;7.57;1.67;;;1.60;76.30;;;;;;5984717;23;20022;-77
2023/03/28 01:59:08;;;;;;;5.07;1.80;;;1.60;76.30;;;;;;5959539;23;20045;-76
2023/03/28 02:01:56;;;;;;;5.00;1.60;;;1.60;76.20;;;;;;5978698;23;20032;-77
2023/03/28 02:04:22;;;;;;;3.92;2.33;;;1.60;76.20;;;;;;5955122;23;20025;-77
2023/03/28 02:06:48;;;;;;;5.85;2.08;;;1.60;76.20;;;;;;5960708;23;20456;-76
2023/03/28 02:09:14;;;;;;;5.63;1.70;;;1.60;76.30;;;;;;5961694;23;20093;-77
2023/03/28 02:11:40;;;;;;;3.22;1.65;;;1.60;76.40;;;;;;5960083;23;20477;-77
2023/03/28 02:14:10;;;;;;;4.78;2.10;;;1.60;76.40;;;;;;5960822;23;20369;-77
2023/03/28 02:16:37;;;;;;;4.70;1.73;;;1.60;76.50;;;;;;5984020;23;20081;-77
2023/03/28 02:19:03;;;;;;;6.88;1.75;;;1.60;76.50;;;;;;5961886;23;20120;-76
2023/03/28 02:21:36;;;;;;;3.83;1.33;;;1.60;76.60;;;;;;5984365;23;20049;-77
2023/03/28 02:24:02;;;;;;;4.10;1.55;;;1.60;76.70;;;;;;5961556;23;20022;-77
2023/03/28 02:26:28;;;;;;;4.05;1.90;;;1.60;76.70;;;;;;5984549;23;20500;-77
2023/03/28 02:28:55;;;;;;;4.10;1.30;;;1.60;76.70;;;;;;5961498;23;20037;-77
2023/03/28 02:31:22;;;;;;;2.45;1.40;;;1.50;76.70;;;;;;5939025;23;20028;-77
2023/03/28 02:33:48;;;;;;;5.65;1.77;;;1.50;77.20;;;;;;5959056;23;20129;-77
2023/03/28 02:36:30;;;;;;;3.15;1.33;;;1.50;76.80;;;;;;5984120;23;20101;-77
2023/03/28 02:39:32;;;;;;;3.28;1.60;;;1.50;76.90;;;;;;5984595;23;20026;-77
2023/03/28 02:42:16;;;;;;;2.80;1.30;;;1.50;77.10;;;;;;5961154;23;20036;-76
2023/03/28 02:45:01;;;;;;;5.05;1.88;;;1.50;77.00;;;;;;5961284;23;20034;-76
2023/03/28 02:47:33;;;;;;;3.03;1.27;;;1.50;77.20;;;;;;5961098;23;20038;-76
2023/03/28 02:50:10;;;;;;;6.55;1.65;;;1.50;77.70;;;;;;5962676;23;20030;-76
2023/03/28 02:53:03;;;;;;;5.15;1.50;;;1.50;76.90;;;;;;5962082;23;20026;-76
2023/03/28 02:55:34;;;;;;;9.18;1.48;;;1.50;77.20;;;;;;5940365;23;20131;-76
2023/03/28 02:58:09;;;;;;;;;;;1.50;77.00;;;;;;5933475;23;20127;-77
2023/03/28 03:00:35;;;;;;;4.38;1.60;;;1.40;76.90;;;;;;5984198;23;19913;-76
2023/03/28 03:03:02;;;;;;;3.47;1.58;;;1.40;76.70;;;;;;5963708;23;20049;-76
2023/03/28 03:05:28;;;;;;;2.28;1.38;;;1.40;76.80;;;;;;5964098;23;20841;-77
2023/03/28 03:07:54;;;;;;;6.57;1.63;;;1.40;76.90;;;;;;5964858;23;20101;-77
2023/03/28 03:10:20;;;;;;;9.10;1.70;;;1.40;77.00;;;;;;5984879;23;20455;-75
2023/03/28 03:12:46;;;;;;;8.25;1.63;;;1.40;77.10;;;;;;5985227;23;20533;-76
2023/03/28 03:15:15;;;;;;;4.10;1.27;;;1.40;77.10;;;;;;5986563;23;20033;-76
2023/03/28 03:17:41;;;;;;;4.45;1.58;;;1.40;77.20;;;;;;5987250;23;20026;-75
2023/03/28 03:20:08;;;;;;;9.00;1.67;;;1.40;77.20;;;;;;5964637;23;20014;-76
2023/03/28 03:22:34;;;;;;;5.80;1.60;;;1.40;77.20;;;;;;5965447;23;20042;-77
2023/03/28 03:25:05;;;;;;;4.40;1.60;;;1.40;77.30;;;;;;5986627;23;20042;-76
2023/03/28 03:27:31;;;;;;;;;;;1.40;77.40;;;;;;5965410;23;20097;-76
2023/03/28 03:29:56;;;;;;;6.22;1.60;;;1.40;77.20;;;;;;5964136;23;19949;-77
2023/03/28 03:32:22;;;;;;;4.05;1.58;;;1.40;77.10;;;;;;5960871;23;20077;-76
2023/03/28 03:34:47;;;;;;;4.40;1.42;;;1.40;77.10;;;;;;5962888;23;20193;-76
2023/03/28 03:37:13;;;;;;;5.90;2.10;;;1.40;77.20;;;;;;5964487;23;20026;-77
2023/03/28 03:39:39;;;;;;;5.00;1.90;;;1.40;77.20;;;;;;5983900;23;20052;-75
2023/03/28 03:42:05;;;;;;;6.53;1.90;;;1.40;77.40;;;;;;5985904;23;20106;-76
2023/03/28 03:44:30;;;;;;;5.68;1.77;;;1.40;77.40;;;;;;5963082;23;20037;-76
2023/03/28 03:46:56;;;;;;;4.95;2.25;;;1.40;77.40;;;;;;5961473;23;20856;-76
2023/03/28 03:49:22;;;;;;;7.43;2.53;;;1.30;77.40;;;;;;5962419;23;20648;-76
2023/03/28 03:51:48;;;;;;;7.25;2.30;;;1.30;77.40;;;;;;5938528;23;20072;-76
2023/03/28 03:54:13;;;;;;;9.45;2.80;;;1.30;77.50;;;;;;5985839;23;20057;-77
2023/03/28 03:56:39;;;;;;;6.18;2.67;;;1.30;77.50;;;;;;5964632;23;20022;-76
2023/03/28 03:59:05;;;;;;;6.43;2.00;;;1.20;77.50;;;;;;5961743;23;20021;-76
2023/03/28 04:01:30;;;;;;;7.70;1.77;;;1.20;77.60;;;;;;5962211;23;20084;-76
2023/03/28 04:03:56;;;;;;;6.38;2.58;;;1.20;77.60;;;;;;5982484;23;20030;-77
2023/03/28 04:06:22;;;;;;;7.97;2.90;;;1.20;77.60;;;;;;5982167;23;20041;-79
2023/03/28 04:08:48;;;;;;;4.72;2.78;;;1.20;77.70;;;;;;5961272;23;20026;-76
2023/03/28 04:11:13;;;;;;;5.55;2.00;;;1.20;77.70;;;;;;5959575;23;20025;-79
2023/03/28 04:13:39;;;;;;;6.22;2.25;;;1.10;77.70;;;;;;5962800;23;20030;-77
2023/03/28 04:16:05;;;;;;;2.08;1.50;;;1.10;77.70;;;;;;5981599;23;20100;-78
2023/03/28 04:18:30;;;;;;;4.47;2.15;;;1.10;77.80;;;;;;5937721;23;20552;-78
2023/03/28 04:20:57;;;;;;;4.28;1.98;;;1.10;77.70;;;;;;5961102;23;20026;-78
2023/03/28 04:23:24;;;;;;;4.65;1.88;;;1.10;77.80;;;;;;5959717;23;20054;-78
2023/03/28 04:25:54;;;;;;;4.47;1.70;;;1.10;77.90;;;;;;5958710;23;20578;-78
2023/03/28 04:28:24;;;;;;;2.97;1.52;;;1.10;77.90;;;;;;5938624;23;20081;-78
2023/03/28 04:30:53;;;;;;;7.28;1.77;;;1.00;77.90;;;;;;5940305;23;20116;-77
2023/03/28 04:33:25;;;;;;;8.10;1.40;;;1.00;78.00;;;;;;5959530;23;20026;-77
2023/03/28 04:35:56;;;;;;;6.50;1.85;;;1.00;78.00;;;;;;5958849;23;20030;-78
2023/03/28 04:38:27;;;;;;;5.88;1.40;;;1.00;78.00;;;;;;5982863;23;20068;-78
2023/03/28 04:40:56;;;;;;;3.47;1.80;;;1.00;78.00;;;;;;5961428;23;20054;-78
2023/03/28 04:43:23;;;;;;;9.20;1.30;;;1.00;78.10;;;;;;5981737;23;20025;-76
2023/03/28 04:45:49;;;;;;;4.28;1.60;;;1.00;78.10;;;;;;5979108;23;20097;-78
2023/03/28 04:48:14;;;;;;;3.38;1.42;;;1.00;78.20;;;;;;5984242;23;20571;-78
2023/03/28 04:50:40;;;;;;;5.03;1.55;;;1.00;78.20;;;;;;5964858;23;20034;-77
2023/03/28 04:53:05;;;;;;;7.60;1.65;;;0.90;78.20;;;;;;5917337;23;20645;-77
2023/03/28 04:55:31;;;;;;;2.88;1.60;;;0.90;78.20;;;;;;5964077;23;20026;-78
2023/03/28 04:57:57;;;;;;;5.13;1.35;;;0.90;78.50;;;;;;5967151;23;20026;-77
2023/03/28 05:00:24;;;;;;;15.45;1.77;;;0.90;78.30;;;;;;5985562;23;20030;-78
2023/03/28 05:02:53;;;;;;;3.90;1.40;;;0.90;78.40;;;;;;5964811;23;20097;-78
2023/03/28 05:05:19;;;;;;;5.55;1.27;;;0.90;78.40;;;;;;5962550;23;20033;-78
2023/03/28 05:07:45;;;;;;;5.20;1.50;;;0.90;78.40;;;;;;5960574;23;20022;-77
2023/03/28 05:10:10;;;;;;;6.25;1.52;;;0.80;78.40;;;;;;5967254;23;20033;-77
2023/03/28 05:12:36;;;;;;;5.90;1.60;;;0.80;78.40;;;;;;5964208;23;20019;-77
2023/03/28 05:15:02;;;;;;;4.95;1.63;;;0.80;78.50;;;;;;5987284;23;20023;-77
2023/03/28 05:17:28;;;;;;;3.22;1.60;;;0.80;78.60;;;;;;5966501;23;20014;-78
2023/03/28 05:19:53;;;;;;;3.90;1.52;;;0.80;78.60;;;;;;5966011;23;20032;-78
2023/03/28 05:22:19;;;;;;;4.90;1.85;;;0.80;78.70;;;;;;5967183;23;20127;-77
2023/03/28 05:24:45;;;;;;;3.75;1.30;;;0.80;78.70;;;;;;5963103;23;20463;-77
2023/03/28 05:27:10;;;;;;;5.10;1.63;;;0.80;78.80;;;;;;5942283;23;20068;-78
2023/03/28 05:29:36;;;;;;;6.07;1.60;;;0.80;78.80;;;;;;5965725;23;20041;-77
2023/03/28 05:32:01;;;;;;;5.22;1.45;;;0.70;78.80;;;;;;5966049;23;20037;-78
2023/03/28 05:34:28;;;;;;;4.65;1.40;;;0.70;78.90;;;;;;5986551;23;20049;-76
2023/03/28 05:36:55;;;;;;;10.93;2.40;;;0.70;78.90;;;;;;5963149;23;20022;-78
2023/03/28 05:39:22;;;;;;;7.57;1.70;;;0.70;79.00;;;;;;5988432;23;20034;-77
2023/03/28 05:41:48;;;;;;;6.47;1.83;;;0.70;79.00;;;;;;5966258;23;20026;-77
2023/03/28 05:44:13;;;;;;;8.18;1.73;;;0.70;79.10;;;;;;5965238;23;20025;-77
2023/03/28 05:46:39;;;;;;;7.30;2.00;;;0.80;79.20;;;;;;5964579;23;20420;-77
2023/03/28 05:49:04;;;;;;;5.90;2.05;;;0.80;79.20;;;;;;5964393;23;20039;-78
2023/03/28 05:51:30;;;;;;;10.27;3.55;;;0.80;79.40;;;;;;5986298;23;20072;-76
2023/03/28 05:53:56;;;;;;;7.40;2.97;;;0.80;79.30;;;;;;5986870;23;20041;-77
2023/03/28 05:56:21;;;;;;;9.52;2.83;;;0.90;79.50;;;;;;5984058;23;20084;-77
2023/03/28 05:58:47;;;;;;;10.05;2.70;;;0.90;79.40;;;;;;5965116;23;20052;-77
2023/03/28 06:01:16;;;;;;;4.85;3.47;;;0.90;79.40;;;;;;5963797;23;20026;-77
2023/03/28 06:03:43;;;;;;;7.25;2.90;;;1.00;79.50;;;;;;5965020;23;20025;-78
2023/03/28 06:06:09;;;;;;;9.57;3.85;;;1.00;79.50;;;;;;5965679;23;20088;-77
2023/03/28 06:08:35;;;;;;;6.18;2.53;;;1.10;79.60;;;;;;5987501;23;20021;-77
2023/03/28 06:11:01;;;;;;;7.18;2.50;;;1.10;79.60;;;;;;5986396;23;20102;-77
2023/03/28 06:13:27;;;;;;;4.75;2.17;;;1.20;79.60;;;;;;5988545;23;20022;-76
2023/03/28 06:15:52;;;;;;;5.55;2.50;;;1.20;79.60;;;;;;5988309;23;20029;-77
2023/03/28 06:18:18;;;;;;;5.28;2.20;;;1.30;79.60;;;;;;5942926;23;20022;-77
2023/03/28 06:20:43;;;;;;;3.10;1.67;;;1.40;79.60;;;;;;5965811;23;20030;-77
2023/03/28 06:23:09;;;;;;;9.40;2.53;;;1.40;79.60;;;;;;5967915;23;20029;-77
2023/03/28 06:25:34;;;;;;;6.75;2.05;;;1.50;79.60;;;;;;5964392;23;20022;-76
2023/03/28 06:28:00;;;;;;;4.40;1.55;;;1.60;79.70;;;;;;5985664;23;20026;-77
2023/03/28 06:30:25;;;;;;;3.33;1.77;;;1.60;79.60;;;;;;5963223;23;20255;-77
2023/03/28 06:32:51;;;;;;;7.75;2.55;;;1.70;79.60;;;;;;5959897;23;20057;-77
2023/03/28 06:35:17;;;;;;;4.97;2.25;;;1.80;79.70;;;;;;5961058;23;20040;-76
2023/03/28 06:37:42;;;;;;;5.57;2.72;;;1.80;79.60;;;;;;5956757;23;20033;-76
2023/03/28 06:40:08;;;;;;;8.18;2.45;;;1.90;79.70;;;;;;5960588;23;20030;-77
2023/03/28 06:42:34;;;;;;;9.18;2.92;;;2.00;79.70;;;;;;5956890;23;20025;-77
2023/03/28 06:45:00;;;;;;;7.18;2.50;;;2.00;79.70;;;;;;5958335;23;20030;-76
2023/03/28 06:47:25;;;;;;;7.72;2.80;;;2.10;79.60;;;;;;5959479;23;20100;-76
2023/03/28 06:49:51;;;;;;;6.80;2.67;;;2.20;79.70;;;;;;5959944;23;20721;-77
2023/03/28 06:52:17;;;;;;;7.60;3.22;;;2.20;79.60;;;;;;5960967;23;20037;-77
2023/03/28 06:54:42;;;;;;;10.85;2.60;;;2.30;79.60;;;;;;5959241;23;20037;-77
2023/03/28 06:57:08;;;;;;;4.13;2.97;;;2.40;79.60;;;;;;5981840;23;20022;-76
2023/03/28 06:59:33;;;;;;;5.70;2.67;;;2.50;79.60;;;;;;5984256;23;20101;-77
2023/03/28 07:02:01;;;;;;;8.00;3.63;;;2.60;79.60;;;;;;5960324;23;20096;-77
2023/03/28 07:04:26;;;;;;;11.13;3.83;;;2.70;79.50;;;;;;5963809;23;20528;-77
2023/03/28 07:06:52;;;;;;;8.45;3.38;;;2.80;79.50;;;;;;5962605;23;20026;-77
2023/03/28 07:09:17;;;;;;;10.30;4.25;;;2.90;79.40;;;;;;5962868;23;20484;-77
2023/03/28 07:11:43;;;;;;;9.57;3.28;;;3.00;79.30;;;;;;5985507;23;20472;-77
2023/03/28 07:14:08;;;;;;;7.38;2.70;;;3.10;79.20;;;;;;5961504;23;20100;-77
2023/03/28 07:16:34;;;;;;;8.05;3.00;;;3.10;79.00;;;;;;5985531;23;20192;-78
2023/03/28 07:18:59;;;;;;;9.18;2.67;;;3.20;79.00;;;;;;5961616;23;20495;-77
2023/03/28 07:21:25;;;;;;;7.88;2.97;;;3.30;79.00;;;;;;5986756;23;20018;-76
2023/03/28 07:23:50;;;;;;;7.22;3.03;;;3.40;79.00;;;;;;5964486;23;20092;-77
2023/03/28 07:26:16;;;;;;;6.57;2.45;;;3.50;78.90;;;;;;5964071;23;20081;-77
2023/03/28 07:28:42;;;;;;;14.30;2.97;;;3.50;78.80;;;;;;5985913;23;20624;-77
2023/03/28 07:31:07;;;;;;;7.00;2.50;;;3.70;78.90;;;;;;5988652;23;20018;-77
2023/03/28 07:33:33;;;;;;;8.38;2.67;;;3.80;78.80;;;;;;5965739;23;20085;-78
2023/03/28 07:36:00;;;;;;;10.18;2.35;;;3.90;78.60;;;;;;5965838;23;20044;-77
2023/03/28 07:38:25;;;;;;;10.30;2.78;;;4.00;78.50;;;;;;5965280;23;20081;-77
2023/03/28 07:40:51;;;;;;;11.48;2.75;;;4.10;78.40;;;;;;5963911;23;20720;-77
2023/03/28 07:43:16;;;;;;;7.65;2.80;;;4.30;78.30;;;;;;5964684;23;20106;-77
2023/03/28 07:45:42;;;;;;;8.52;2.67;;;4.40;78.20;;;;;;5966487;23;20077;-77
2023/03/28 07:48:08;;;;;;;12.52;3.08;;;4.50;78.10;;;;;;5969043;23;20065;-77
2023/03/28 07:50:34;;;;;;;6.85;2.47;;;4.70;77.90;;;;;;5967144;23;20053;-78
2023/03/28 07:52:59;;;;;;;7.85;2.47;;;4.80;77.70;;;;;;5989012;23;20022;-78
2023/03/28 07:55:26;;;;;;;7.53;2.40;;;5.00;77.60;;;;;;5964719;23;20030;-78
2023/03/28 07:57:52;;;;;;;7.53;2.42;;;5.10;77.50;;;;;;5965764;23;20037;-78
2023/03/28 08:00:18;;;;;;;11.32;2.35;;;5.30;77.30;;;;;;5946203;23;20033;-78
2023/03/28 08:02:43;;;;;;;7.85;2.40;;;5.50;77.20;;;;;;5965543;23;20022;-79
2023/03/28 08:05:09;;;;;;;9.65;2.63;;;5.60;76.90;;;;;;5966248;23;20093;-79
2023/03/28 08:07:35;;;;;;;6.10;2.30;;;5.80;76.70;;;;;;5991486;23;20457;-78
2023/03/28 08:10:01;;;;;;;6.30;2.42;;;5.90;76.50;;;;;;5987974;23;20050;-78
2023/03/28 08:12:27;;;;;;;4.93;2.10;;;6.10;76.20;;;;;;5965181;23;20025;-78
2023/03/28 08:14:53;;;;;;;8.88;2.55;;;6.20;75.90;;;;;;5964307;23;20029;-78
2023/03/28 08:17:18;;;;;;;8.40;2.78;;;6.40;75.70;;;;;;5943063;23;20014;-78
2023/03/28 08:19:44;;;;;;;8.57;2.45;;;6.50;75.40;;;;;;5944896;23;20486;-78
2023/03/28 08:22:11;;;;;;;5.72;2.08;;;6.60;75.20;;;;;;5965717;23;20552;-79
2023/03/28 08:24:36;;;;;;;5.20;1.85;;;6.80;74.80;;;;;;5991506;23;20026;-78
2023/03/28 08:27:02;;;;;;;6.85;1.98;;;6.90;74.70;;;;;;5967721;23;20025;-78
2023/03/28 08:29:28;;;;;;;3.92;1.98;;;7.00;74.50;;;;;;5966874;23;20049;-79
2023/03/28 08:31:53;;;;;;;16.13;2.22;;;7.10;74.20;;;;;;5966405;23;21150;-77
2023/03/28 08:34:19;;;;;;;7.20;1.90;;;7.20;73.90;;;;;;5966080;23;20085;-78
2023/03/28 08:36:45;;;;;;;5.63;1.73;;;7.40;73.70;;;;;;5963286;23;20069;-78
2023/03/28 08:39:11;;;;;;;6.43;2.15;;;7.50;73.40;;;;;;5963513;23;20022;-77
2023/03/28 08:41:58;;;;;;;10.88;2.00;;;7.60;73.20;;;;;;5987326;23;20129;-78
2023/03/28 08:44:36;;;;;;;14.45;2.22;;;7.70;72.40;;;;;;5964528;23;20222;-79
2023/03/28 08:47:34;;;;;;;7.60;2.03;;;7.80;72.20;;;;;;5963952;23;20042;-77
2023/03/28 08:50:22;;;;;;;10.13;2.70;;;8.10;72.40;;;;;;5940633;23;20034;-78
2023/03/28 08:52:48;;;;;;;4.53;1.88;;;8.30;72.00;;;;;;5944012;23;20026;-78
2023/03/28 08:55:39;;;;;;;8.55;1.98;;;8.40;71.70;;;;;;5963687;23;20018;-78
2023/03/28 08:58:05;;;;;;;7.65;2.03;;;8.60;71.00;;;;;;5942356;23;20065;-77
2023/03/28 09:00:33;;;;;;;6.20;1.60;;;8.80;71.20;;;;;;5987256;23;20393;-78
2023/03/28 09:02:58;;;;;;;6.22;1.75;;;9.00;70.70;;;;;;5964880;23;20018;-78
2023/03/28 09:05:40;;;;;;;5.18;1.50;;;9.10;70.20;;;;;;5964050;23;20020;-79
2023/03/28 09:08:21;;;;;;;3.80;1.70;;;9.30;68.70;;;;;;5940758;23;20532;-77
2023/03/28 09:11:21;;;;;;;5.00;1.23;;;9.30;68.30;;;;;;5962670;23;20022;-78
2023/03/28 09:14:03;;;;;;;5.13;2.53;;;9.40;68.50;;;;;;5953189;23;20069;-78
2023/03/28 09:16:40;;;;;;;4.25;1.33;;;9.50;68.20;;;;;;5961365;23;20100;-78
2023/03/28 09:19:14;;;;;;;4.47;0.93;;;9.60;67.80;;;;;;5960607;23;20022;-78
2023/03/28 09:21:46;;;;;;;5.13;1.42;;;9.70;67.70;;;;;;5963538;23;20080;-77
2023/03/28 09:24:29;;;;;;;3.30;1.20;;;9.80;67.80;;;;;;5954118;23;20026;-78
2023/03/28 09:27:05;;;;;;;3.97;1.38;;;9.90;66.40;;;;;;5960942;23;20109;-78
2023/03/28 09:29:32;;;;;;;5.32;1.27;;;10.00;66.80;;;;;;5988120;23;20022;-77
2023/03/28 09:32:03;;;;;;;6.95;1.40;;;10.00;66.40;;;;;;5961420;23;20072;-78
2023/03/28 09:34:39;;;;;;;4.60;1.35;;;10.10;66.00;;;;;;5962973;23;20037;-78
2023/03/28 09:37:13;;;;;;;2.65;1.17;;;10.20;65.20;;;;;;5961669;23;20026;-78
2023/03/28 09:39:41;;;;;;;5.18;1.20;;;10.30;64.80;;;;;;5962196;23;20582;-78
2023/03/28 09:42:06;;;;;;;3.60;0.90;;;10.50;65.00;;;;;;5958999;23;20046;-77
2023/03/28 09:44:36;;;;;;;4.53;1.08;;;10.60;64.60;;;;;;5964802;23;20468;-78
2023/03/28 09:47:02;;;;;;;6.75;1.02;;;10.70;63.60;;;;;;5934943;23;20484;-79
2023/03/28 09:49:27;;;;;;;7.32;0.90;;;10.80;63.30;;;;;;5940213;23;20080;-77
2023/03/28 09:51:54;;;;;;;2.05;0.70;;;10.80;62.90;;;;;;5963028;23;20026;-79
2023/03/28 09:54:29;;;;;;;4.20;0.90;;;10.90;62.90;;;;;;5961328;23;20080;-77
2023/03/28 09:57:02;;;;;;;7.20;1.10;;;11.10;62.80;;;;;;5963254;23;20030;-78
2023/03/28 09:59:31;;;;;;;7.47;1.17;;;11.40;61.90;;;;;;5938888;23;20037;-77
2023/03/28 10:01:58;;;;;;;1.90;1.00;;;11.60;61.70;;;;;;5963748;23;20030;-77
2023/03/28 10:04:26;;;;;;;3.38;1.30;;;11.80;61.40;;;;;;5964119;23;20060;-78
2023/03/28 10:06:53;;;;;;;2.30;0.82;;;12.00;60.70;;;;;;5964057;23;20089;-78
2023/03/28 10:09:27;;;;;;;5.68;1.38;;;12.10;60.40;;;;;;5982826;23;20022;-77
2023/03/28 10:12:00;;;;;;;5.05;0.82;;;12.30;60.00;;;;;;5961138;23;20022;-77
2023/03/28 10:14:29;;;;;;;5.57;1.25;;;12.50;59.80;;;;;;5985607;23;20036;-77
2023/03/28 10:16:55;;;;;;;4.03;0.80;;;12.60;60.20;;;;;;5984694;23;20086;-78
2023/03/28 10:19:22;;;;;;;4.82;1.10;;;12.60;58.90;;;;;;5988461;23;20022;-77
2023/03/28 10:21:48;;;;;;;2.95;0.80;;;12.50;58.60;;;;;;5938901;23;20114;-78
2023/03/28 10:24:15;;;;;;;3.58;0.85;;;12.50;58.30;;;;;;5983221;23;20041;-78
2023/03/28 10:26:41;;;;;;;4.55;1.30;;;12.60;58.10;;;;;;5962331;23;20037;-79
2023/03/28 10:29:07;;;;;;;2.38;1.20;;;12.60;57.90;;;;;;5938822;23;20018;-77
2023/03/28 10:31:33;;;;;;;6.00;0.90;;;12.70;57.70;;;;;;5963667;23;20041;-77
2023/03/28 10:33:59;;;;;;;4.35;1.13;;;12.80;57.50;;;;;;5962326;23;20673;-78
2023/03/28 10:36:36;;;;;;;4.72;1.23;;;12.90;57.70;;;;;;5961952;23;20116;-77
2023/03/28 10:39:38;;;;;;;3.90;0.82;;;13.10;56.90;;;;;;5983333;23;20026;-77
2023/03/28 10:42:03;;;;;;;;;;;13.30;56.40;;;;;;5958312;23;20014;-76
2023/03/28 10:44:30;;;;;;;;;;;13.50;57.00;;;;;;5963929;23;19965;-77
2023/03/28 10:46:57;;;;;;;;;;;13.70;57.30;;;;;;5963965;23;20043;-77
2023/03/28 10:49:22;;;;;;;;;;;13.90;57.60;;;;;;5984573;23;19909;-78
2023/03/28 10:51:48;;;;;;;;;;;14.00;57.70;;;;;;5986589;23;20431;-77
2023/03/28 10:54:13;;;;;;;;;;;14.20;57.80;;;;;;5985205;23;20368;-76
2023/03/28 10:56:40;;;;;;;;;;;14.40;57.90;;;;;;5965329;23;19929;-77
2023/03/28 10:59:17;;;;;;;;;;;14.50;57.90;;;;;;5962233;23;19917;-78
2023/03/28 11:01:49;;;;;;;;;;;14.60;58.00;;;;;;5964124;23;20668;-77
2023/03/28 11:04:33;;;;;;;;;;;14.80;58.10;;;;;;5962291;23;19910;-77
2023/03/28 11:07:12;;;;;;;;;;;14.90;58.10;;;;;;5963437;23;19921;-77
2023/03/28 11:09:38;;;;;;;;;;;15.00;58.30;;;;;;5943720;23;20415;-77
2023/03/28 11:12:22;;;;;;;;;;;15.20;58.20;;;;;;5963291;23;19989;-77
2023/03/28 11:15:11;;;;;;;;;;;15.30;58.30;;;;;;5964293;23;19909;-79
2023/03/28 11:17:42;;;;;;;;;;;15.40;58.30;;;;;;5949701;23;19909;-78
2023/03/28 11:20:16;;;;;;;;;;;15.50;58.20;;;;;;5960066;23;19972;-77
2023/03/28 11:22:55;;;;;;;;;;;15.50;58.30;;;;;;5962540;23;20263;-79
2023/03/28 11:25:22;;;;;;;;;;;15.60;58.40;;;;;;5982436;23;19909;-77
2023/03/28 11:28:03;;;;;;;;;;;15.70;58.40;;;;;;5962279;23;19937;-78
2023/03/28 11:30:30;;;;;;;;;;;15.90;58.40;;;;;;5977306;23;19917;-79
2023/03/28 11:33:01;;;;;;;;;;;16.00;58.30;;;;;;5957002;23;19917;-79
2023/03/28 11:35:36;;;;;;;;;;;16.10;58.40;;;;;;5955839;23;20467;-78
2023/03/28 11:38:21;;;;;;;;;;;16.10;58.30;;;;;;5984086;23;19917;-78
2023/03/28 11:41:03;;;;;;;;;;;16.30;58.40;;;;;;5960268;23;19913;-80
2023/03/28 11:43:30;;;;;;;;;;;16.40;58.40;;;;;;5985992;23;20387;-78
2023/03/28 11:45:58;;;;;;;;;;;16.60;58.30;;;;;;5985155;23;19925;-77
2023/03/28 11:48:39;;;;;;;;;;;16.70;58.30;;;;;;5962055;23;19979;-77
2023/03/28 11:51:09;;;;;;;;;;;16.80;58.10;;;;;;5965171;23;19913;-77
2023/03/28 11:53:44;;;;;;;;;;;16.90;58.20;;;;;;5983854;23;19914;-78
2023/03/28 11:56:22;;;;;;;;;;;17.00;58.10;;;;;;5961899;23;19913;-78
2023/03/28 11:58:47;;;;;;;;;;;17.00;58.10;;;;;;5986043;23;20087;-77
2023/03/28 12:01:14;;;;;;;;;;;17.00;58.20;;;;;;5986112;23;20423;-79
2023/03/28 12:03:41;;;;;;;;;;;17.10;58.20;;;;;;5960917;23;19920;-78
2023/03/28 12:06:15;;;;;;;;;;;17.20;58.10;;;;;;5950952;23;19913;-77
2023/03/28 12:08:47;;;;;;;;;;;17.30;58.10;;;;;;5962206;23;19909;-79
2023/03/28 12:11:17;;;;;;;;;;;17.30;58.10;;;;;;5986022;23;19985;-77
2023/03/28 12:13:47;;;;;;;;;;;17.40;58.10;;;;;;5986335;23;19912;-78
2023/03/28 12:16:13;;;;;;;;;;;17.50;58.10;;;;;;5963071;23;20004;-77
2023/03/28 12:18:42;;;;;;;;;;;17.50;58.10;;;;;;5987582;23;19913;-77
2023/03/28 12:21:12;;;;;;;;;;;17.60;58.20;;;;;;5966460;23;19909;-77
2023/03/28 12:23:41;;;;;;;;;;;17.70;58.10;;;;;;5963401;23;19970;-78
2023/03/28 12:26:25;;;;;;;;;;;17.80;58.10;;;;;;5984026;23;19917;-76
2023/03/28 12:28:52;;;;;;;;;;;18.00;58.00;;;;;;5964188;23;19920;-78
2023/03/28 12:31:20;;;;;;;;;;;18.00;57.80;;;;;;5985504;23;19913;-78
2023/03/28 12:33:57;;;;;;;;;;;18.10;57.90;;;;;;5966329;23;19935;-76
2023/03/28 12:36:27;;;;;;;;;;;18.10;57.80;;;;;;5961723;23;19923;-76
2023/03/28 12:38:56;;;;;;;;;;;18.20;57.80;;;;;;5961151;23;19916;-78
2023/03/28 12:41:23;;;;;;;;;;;18.30;57.80;;;;;;5985312;23;19913;-77
2023/03/28 12:43:56;;;;;;;;;;;18.30;57.80;;;;;;5985659;23;19939;-77
2023/03/28 12:46:23;;;;;;;;;;;18.40;57.90;;;;;;5964027;23;19936;-78
2023/03/28 12:48:50;;;;;;;;;;;18.50;57.80;;;;;;5962814;23;19909;-78
2023/03/28 12:51:21;;;;;;;;;;;18.50;57.80;;;;;;5987693;23;19988;-76
2023/03/28 12:53:58;;;;;;;;;;;18.60;57.80;;;;;;5960900;23;20342;-78
2023/03/28 12:56:23;;;;;;;;;;;18.70;57.70;;;;;;5962411;23;20747;-75
2023/03/28 12:58:50;;;;;;;;;;;18.80;57.60;;;;;;5986668;23;19960;-77
2023/03/28 13:01:26;;;;;;;;;;;18.90;57.70;;;;;;5991550;23;20196;-78
2023/03/28 13:03:57;;;;;;;;;;;19.00;57.60;;;;;;5985964;23;19913;-78
2023/03/28 13:06:25;;;;;;;;;;;19.20;57.60;;;;;;5985003;23;19924;-77
2023/03/28 13:09:09;;;;;;;;;;;19.30;57.50;;;;;;5964041;23;19936;-76
2023/03/28 13:11:38;;;;;;;;;;;19.40;57.40;;;;;;5965485;23;19960;-78
2023/03/28 13:14:13;;;;;;;;;;;19.40;57.30;;;;;;5964840;23;20366;-78
2023/03/28 13:16:41;;;;;;;;;;;19.40;57.30;;;;;;5948359;23;19937;-79
2023/03/28 13:19:10;;;;;;;;;;;19.40;57.40;;;;;;5964528;23;19917;-76
2023/03/28 13:21:56;;;;;;;;;;;19.40;57.40;;;;;;5983323;23;20341;-77
2023/03/28 13:24:25;;;;;;;;;;;19.40;57.40;;;;;;5962214;23;19909;-79
2023/03/28 13:27:17;;;;;;;;;;;19.40;57.40;;;;;;5961064;23;19921;-78